createdAt,value
2022-09-28T00:01:20.445Z,11.38
2022-09-28T00:04:34.987Z,11.39
2022-09-28T00:11:41.983Z,11.71
2022-09-28T00:14:57.016Z,11.79
2022-09-28T00:17:58.833Z,11.79
2022-09-28T00:21:23.000Z,11.82
2022-09-28T00:24:31.581Z,11.80
2022-09-28T00:27:40.006Z,11.79
2022-09-28T00:30:48.632Z,11.79
2022-09-28T00:34:40.989Z,11.69
2022-09-28T00:37:49.002Z,11.62
2022-09-28T00:40:57.671Z,11.53
2022-09-28T00:44:31.006Z,11.60
2022-09-28T00:47:54.003Z,11.61
2022-09-28T00:50:57.013Z,11.63
2022-09-28T00:54:13.994Z,11.53
2022-09-28T00:57:16.943Z,11.47
2022-09-28T01:00:32.094Z,11.59
2022-09-28T01:03:40.710Z,11.55
2022-09-28T01:06:56.002Z,11.62
2022-09-28T01:10:03.991Z,11.64
2022-09-28T01:13:20.016Z,11.70
2022-09-28T01:16:41.763Z,11.72
2022-09-28T01:20:30.972Z,11.74
2022-09-28T01:24:05.003Z,11.78
2022-09-28T01:27:13.428Z,11.83
2022-09-28T01:30:28.996Z,11.83
2022-09-28T01:34:16.996Z,11.88
2022-09-28T01:37:31.643Z,11.86
2022-09-28T01:40:47.056Z,11.89
2022-09-28T01:43:55.055Z,11.91
2022-09-28T01:47:11.002Z,11.92
2022-09-28T01:50:29.008Z,11.91
2022-09-28T01:53:43.412Z,11.88
2022-09-28T01:57:17.012Z,11.87
2022-09-28T02:00:33.004Z,11.81
2022-09-28T02:03:44.475Z,11.81
2022-09-28T02:07:00.980Z,11.86
2022-09-28T02:10:33.026Z,11.86
2022-09-28T02:14:04.997Z,11.94
2022-09-28T02:17:07.594Z,11.97
2022-09-28T02:20:22.985Z,11.99
2022-09-28T02:23:28.440Z,11.99
2022-09-28T02:26:48.994Z,11.96
2022-09-28T02:30:04.026Z,11.96
2022-09-28T02:33:35.997Z,11.96
2022-09-28T02:36:46.501Z,11.92
2022-09-28T02:40:01.020Z,11.91
2022-09-28T02:43:25.007Z,11.88
2022-09-28T02:46:43.385Z,11.86
2022-09-28T02:50:31.013Z,11.88
2022-09-28T02:54:03.938Z,11.92
2022-09-28T02:57:40.011Z,11.88
2022-09-28T03:01:18.054Z,11.84
2022-09-28T03:04:48.029Z,11.81
2022-09-28T03:07:58.544Z,11.82
2022-09-28T03:11:36.990Z,11.81
2022-09-28T03:14:52.027Z,11.80
2022-09-28T03:18:07.013Z,11.79
2022-09-28T03:21:23.008Z,11.85
2022-09-28T03:24:31.530Z,11.80
2022-09-28T03:27:46.006Z,11.78
2022-09-28T03:31:01.057Z,11.86
2022-09-28T03:34:22.988Z,11.87
2022-09-28T03:37:38.021Z,11.87
2022-09-28T03:41:07.036Z,11.82
2022-09-28T03:44:09.203Z,11.80
2022-09-28T03:47:25.014Z,11.79
2022-09-28T03:50:33.530Z,11.73
2022-09-28T03:53:43.000Z,11.69
2022-09-28T03:56:57.999Z,11.59
2022-09-28T03:59:59.909Z,11.54
2022-09-28T04:03:14.998Z,11.44
2022-09-28T04:06:16.747Z,11.39
2022-09-28T04:09:30.988Z,11.43
2022-09-28T04:12:32.743Z,11.45
2022-09-28T04:15:49.010Z,11.47
2022-09-28T04:18:57.011Z,11.43
2022-09-28T04:22:05.465Z,11.45
2022-09-28T04:25:20.036Z,11.45
2022-09-28T04:28:28.577Z,11.43
2022-09-28T04:31:53.063Z,11.40
2022-09-28T04:35:18.007Z,11.38
2022-09-28T04:38:30.849Z,11.35
2022-09-28T04:41:55.986Z,11.27
2022-09-28T04:45:11.030Z,11.35
2022-09-28T04:48:12.806Z,11.36
2022-09-28T04:51:28.000Z,11.33
2022-09-28T04:54:43.028Z,11.29
2022-09-28T04:57:51.539Z,11.24
2022-09-28T05:01:09.046Z,11.19
2022-09-28T05:04:18.809Z,11.28
2022-09-28T05:07:35.979Z,11.24
2022-09-28T05:10:45.885Z,11.28
2022-09-28T05:14:01.013Z,11.24
2022-09-28T05:17:09.003Z,11.22
2022-09-28T05:20:17.537Z,11.25
2022-09-28T05:23:34.305Z,11.28
2022-09-28T05:26:43.007Z,11.27
2022-09-28T05:29:51.527Z,11.22
2022-09-28T05:33:05.993Z,11.26
2022-09-28T05:36:14.202Z,11.30
2022-09-28T05:40:10.024Z,11.24
2022-09-28T05:43:18.241Z,11.18
2022-09-28T05:46:33.025Z,11.13
2022-09-28T05:49:34.864Z,11.02
2022-09-28T05:52:50.009Z,11.04
2022-09-28T05:55:59.324Z,11.13
2022-09-28T06:02:38.087Z,11.24
2022-09-28T06:05:46.623Z,11.26
2022-09-28T06:09:00.984Z,11.31
2022-09-28T06:12:09.495Z,11.43
2022-09-28T06:15:24.012Z,11.51
2022-09-28T06:18:33.013Z,11.68
2022-09-28T06:21:41.523Z,11.79
2022-09-28T06:24:50.018Z,11.88
2022-09-28T06:27:59.460Z,11.96
2022-09-28T06:31:14.079Z,12.04
2022-09-28T06:34:21.978Z,12.20
2022-09-28T06:37:30.589Z,12.25
2022-09-28T06:40:40.055Z,12.33
2022-09-28T06:43:48.875Z,12.39
2022-09-28T06:47:04.026Z,12.41
2022-09-28T06:50:12.996Z,12.48
2022-09-28T06:53:21.519Z,12.52
2022-09-28T06:56:32.945Z,12.54
2022-09-28T06:59:47.993Z,12.54
2022-09-28T07:03:02.989Z,12.60
2022-09-28T07:06:18.986Z,12.70
2022-09-28T07:09:32.607Z,12.90
2022-09-28T07:12:42.523Z,13.05
2022-09-28T07:16:04.036Z,13.26
2022-09-28T07:19:12.637Z,13.29
2022-09-28T07:22:40.347Z,13.55
2022-09-28T07:25:45.550Z,13.78
2022-09-28T07:29:00.006Z,13.98
2022-09-28T07:32:15.199Z,14.19
2022-09-28T07:35:17.598Z,14.50
2022-09-28T07:38:31.982Z,14.78
2022-09-28T07:41:40.005Z,15.02
2022-09-28T07:44:55.054Z,15.16
2022-09-28T07:51:20.470Z,15.82
2022-09-28T07:54:35.013Z,16.18
2022-09-28T07:57:43.623Z,16.41
2022-09-28T08:00:58.071Z,16.33
2022-09-28T08:04:05.997Z,16.45
2022-09-28T08:07:23.808Z,16.76
2022-09-28T08:10:40.194Z,16.73
2022-09-28T08:13:57.003Z,16.69
2022-09-28T08:16:58.766Z,16.97
2022-09-28T08:20:15.046Z,17.21
2022-09-28T08:23:23.005Z,17.17
2022-09-28T08:26:38.051Z,17.49
2022-09-28T08:29:46.018Z,17.73
2022-09-28T08:33:01.618Z,17.94
2022-09-28T08:36:17.014Z,17.78
2022-09-28T08:39:26.008Z,17.70
2022-09-28T08:42:41.485Z,17.52
2022-09-28T08:45:50.049Z,17.60
2022-09-28T08:49:31.603Z,17.79
2022-09-28T08:52:47.040Z,18.02
2022-09-28T08:55:57.196Z,18.22
2022-09-28T08:59:11.024Z,18.10
2022-09-28T09:02:34.785Z,18.08
2022-09-28T09:06:18.578Z,18.16
2022-09-28T09:09:42.995Z,18.13
2022-09-28T09:13:04.028Z,18.43
2022-09-28T09:16:43.034Z,18.47
2022-09-28T09:20:08.108Z,18.31
2022-09-28T09:23:43.876Z,18.11
2022-09-28T09:26:52.050Z,18.58
2022-09-28T09:30:10.229Z,18.62
2022-09-28T09:33:53.111Z,18.43
2022-09-28T09:37:12.066Z,18.89
2022-09-28T09:41:11.047Z,19.02
2022-09-28T09:44:40.038Z,19.25
2022-09-28T09:47:50.748Z,19.30
2022-09-28T09:51:10.038Z,18.96
2022-09-28T09:54:59.182Z,18.68
2022-09-28T09:58:13.182Z,19.09
2022-09-28T10:01:39.123Z,19.05
2022-09-28T10:04:45.124Z,19.57
2022-09-28T10:08:15.020Z,19.18
2022-09-28T10:11:35.027Z,18.69
2022-09-28T10:14:43.606Z,18.25
2022-09-28T10:17:53.199Z,17.82
2022-09-28T10:21:02.350Z,17.88
2022-09-28T10:24:11.027Z,17.93
2022-09-28T10:27:49.486Z,18.20
2022-09-28T10:30:57.644Z,18.78
2022-09-28T10:34:06.010Z,18.98
2022-09-28T10:37:24.029Z,18.94
2022-09-28T10:40:46.737Z,19.20
2022-09-28T10:44:08.023Z,18.26
2022-09-28T10:47:26.027Z,18.40
2022-09-28T10:50:34.520Z,18.37
2022-09-28T10:53:46.027Z,18.16
2022-09-28T10:56:56.201Z,18.42
2022-09-28T11:00:13.025Z,18.17
2022-09-28T11:03:28.088Z,18.03
2022-09-28T11:06:51.101Z,17.97
2022-09-28T11:10:01.461Z,17.92
2022-09-28T11:13:15.174Z,17.87
2022-09-28T11:16:33.031Z,18.24
2022-09-28T11:19:41.049Z,18.72
2022-09-28T11:22:57.032Z,18.95
2022-09-28T11:26:08.992Z,18.93
2022-09-28T11:29:32.028Z,18.93
2022-09-28T11:32:43.796Z,19.03
2022-09-28T11:36:22.042Z,19.02
2022-09-28T11:40:21.073Z,19.17
2022-09-28T11:43:56.458Z,18.81
2022-09-28T11:47:30.035Z,18.98
2022-09-28T11:50:57.036Z,19.36
2022-09-28T11:54:25.168Z,19.34
2022-09-28T12:09:27.049Z,18.93
2022-09-28T12:12:58.039Z,18.71
2022-09-28T12:20:31.042Z,19.11
2022-09-28T12:23:50.055Z,18.84
2022-09-28T12:26:56.619Z,18.78
2022-09-28T12:30:18.070Z,18.85
2022-09-28T12:33:33.049Z,19.00
2022-09-28T12:36:41.042Z,18.92
2022-09-28T12:40:07.364Z,18.66
2022-09-28T12:43:32.946Z,18.68
2022-09-28T12:47:23.072Z,18.55
2022-09-28T12:50:59.296Z,18.45
2022-09-28T12:54:15.085Z,18.51
2022-09-28T12:57:36.135Z,18.63
2022-09-28T13:01:20.119Z,18.87
2022-09-28T13:04:37.909Z,19.08
2022-09-28T13:08:00.111Z,19.00
2022-09-28T13:11:18.070Z,19.01
2022-09-28T13:15:03.791Z,18.87
2022-09-28T13:18:24.035Z,18.75
2022-09-28T13:22:32.050Z,18.65
2022-09-28T13:26:09.094Z,18.50
2022-09-28T13:29:27.425Z,18.33
2022-09-28T13:32:39.077Z,18.35
2022-09-28T13:35:47.611Z,18.28
2022-09-28T13:39:05.119Z,18.04
2022-09-28T13:42:35.057Z,18.15
2022-09-28T13:45:52.213Z,18.17
2022-09-28T13:49:38.053Z,18.22
2022-09-28T13:53:07.065Z,18.18
2022-09-28T13:56:36.087Z,18.10
2022-09-28T14:00:08.058Z,18.14
2022-09-28T14:03:26.086Z,18.20
2022-09-28T14:06:34.453Z,18.30
2022-09-28T14:10:27.062Z,18.29
2022-09-28T14:13:48.071Z,18.28
2022-09-28T14:16:59.908Z,18.43
2022-09-28T14:20:21.090Z,18.43
2022-09-28T14:24:11.061Z,18.45
2022-09-28T14:27:34.769Z,18.11
2022-09-28T14:30:49.080Z,17.88
2022-09-28T14:34:03.065Z,17.93
2022-09-28T14:37:27.268Z,17.94
2022-09-28T14:41:11.080Z,18.00
2022-09-28T14:44:26.078Z,17.93
2022-09-28T14:47:45.065Z,17.94
2022-09-28T14:54:58.075Z,17.73
2022-09-28T14:58:23.077Z,17.92
2022-09-28T15:05:25.236Z,17.92
2022-09-28T15:08:40.303Z,17.61
2022-09-28T15:11:49.083Z,17.46
2022-09-28T15:15:07.123Z,17.41
2022-09-28T15:18:37.086Z,17.37
2022-09-28T15:21:52.068Z,17.37
2022-09-28T15:25:09.077Z,17.29
2022-09-28T15:28:19.990Z,17.26
2022-09-28T15:31:32.086Z,17.21
2022-09-28T15:34:54.061Z,17.12
2022-09-28T15:37:55.977Z,17.14
2022-09-28T15:41:13.059Z,17.13
2022-09-28T15:44:41.125Z,17.05
2022-09-28T15:47:43.088Z,17.03
2022-09-28T15:54:34.072Z,17.01
2022-09-28T15:57:43.184Z,17.04
2022-09-28T16:00:54.062Z,17.00
2022-09-28T16:05:08.071Z,16.97
2022-09-28T16:08:38.711Z,16.87
2022-09-28T16:11:53.059Z,16.80
2022-09-28T16:15:12.152Z,16.75
2022-09-28T16:18:20.088Z,16.69
2022-09-28T16:21:45.066Z,16.63
2022-09-28T16:25:05.102Z,16.47
2022-09-28T16:28:06.916Z,16.51
2022-09-28T16:35:17.103Z,16.46
2022-09-28T16:38:25.703Z,16.41
2022-09-28T16:41:40.100Z,16.37
2022-09-28T16:44:41.914Z,16.34
2022-09-28T16:47:58.109Z,16.34
2022-09-28T16:51:13.109Z,16.31
2022-09-28T16:54:21.167Z,16.24
2022-09-28T16:57:36.091Z,16.25
2022-09-28T17:00:51.083Z,16.25
2022-09-28T17:04:06.134Z,16.22
2022-09-28T17:07:28.134Z,16.21
2022-09-28T17:11:09.836Z,16.19
2022-09-28T17:14:16.559Z,16.18
2022-09-28T17:17:25.082Z,16.15
2022-09-28T17:20:35.959Z,16.14
2022-09-28T17:23:44.092Z,16.11
2022-09-28T17:26:52.803Z,16.07
2022-09-28T17:30:07.082Z,16.00
2022-09-28T17:33:15.749Z,15.87
2022-09-28T17:36:30.082Z,15.76
2022-09-28T17:39:45.067Z,15.61
2022-09-28T17:42:54.111Z,15.53
2022-09-28T17:46:09.117Z,15.48
2022-09-28T17:49:25.077Z,15.41
2022-09-28T17:52:26.856Z,15.40
2022-09-28T17:55:45.117Z,15.34
2022-09-28T17:58:47.183Z,15.31
2022-09-28T18:02:02.682Z,15.23
2022-09-28T18:05:18.255Z,15.13
2022-09-28T18:08:28.472Z,15.03
2022-09-28T18:11:47.086Z,14.91
2022-09-28T18:14:55.706Z,14.79
2022-09-28T18:18:04.094Z,14.67
2022-09-28T18:21:19.105Z,14.57
2022-09-28T18:24:34.072Z,14.48
2022-09-28T18:27:42.108Z,14.42
2022-09-28T18:30:57.107Z,14.33
2022-09-28T18:34:12.141Z,14.27
2022-09-28T18:37:21.089Z,14.22
2022-09-28T18:40:29.669Z,14.19
2022-09-28T18:43:47.407Z,14.13
2022-09-28T18:46:56.111Z,14.10
2022-09-28T18:50:05.144Z,14.06
2022-09-28T18:53:20.117Z,14.02
2022-09-28T18:56:22.332Z,14.01
2022-09-28T18:59:37.125Z,13.98
2022-09-28T19:02:39.324Z,13.96
2022-09-28T19:05:54.148Z,14.00
2022-09-28T19:09:09.088Z,13.98
2022-09-28T19:12:14.417Z,13.92
2022-09-28T19:15:29.161Z,13.93
2022-09-28T19:18:46.104Z,13.88
2022-09-28T19:21:49.439Z,13.83
2022-09-28T19:25:04.299Z,13.79
2022-09-28T19:28:14.103Z,13.78
2022-09-28T19:31:23.459Z,13.79
2022-09-28T19:34:38.144Z,13.73
2022-09-28T19:37:39.950Z,13.71
2022-09-28T19:40:55.157Z,13.69
2022-09-28T19:44:05.282Z,13.69
2022-09-28T19:47:15.126Z,13.65
2022-09-28T19:50:30.109Z,13.63
2022-09-28T19:53:38.607Z,13.60
2022-09-28T19:56:53.119Z,13.63
2022-09-28T20:00:08.085Z,13.61
2022-09-28T20:03:24.108Z,13.63
2022-09-28T20:06:26.561Z,13.61
2022-09-28T20:09:41.117Z,13.61
2022-09-28T20:12:58.102Z,13.59
2022-09-28T20:16:07.138Z,13.61
2022-09-28T20:19:22.106Z,13.60
2022-09-28T20:22:30.627Z,13.56
2022-09-28T20:25:39.092Z,13.54
2022-09-28T20:28:54.081Z,13.56
2022-09-28T20:32:03.240Z,13.55
2022-09-28T20:35:12.096Z,13.53
2022-09-28T20:38:20.673Z,13.52
2022-09-28T20:41:30.113Z,13.53
2022-09-28T20:44:45.167Z,13.52
2022-09-28T20:47:53.630Z,13.50
2022-09-28T20:51:10.096Z,13.50
2022-09-28T20:54:25.090Z,13.52
2022-09-28T20:57:27.630Z,13.51
2022-09-28T21:00:42.088Z,13.48
2022-09-28T21:03:52.141Z,13.43
2022-09-28T21:07:07.090Z,13.43
2022-09-28T21:10:15.698Z,13.39
2022-09-28T21:16:45.090Z,13.39
2022-09-28T21:19:53.644Z,13.40
2022-09-28T21:23:02.127Z,13.40
2022-09-28T21:26:16.655Z,13.39
2022-09-28T21:29:25.100Z,13.42
2022-09-28T21:32:40.103Z,13.44
2022-09-28T21:35:48.626Z,13.47
2022-09-28T21:38:57.102Z,13.46
2022-09-28T21:42:05.747Z,13.46
2022-09-28T21:45:20.123Z,13.43
2022-09-28T21:48:23.900Z,13.45
2022-09-28T21:51:46.084Z,13.46
2022-09-28T21:54:47.805Z,13.44
2022-09-28T21:58:02.116Z,13.44
2022-09-28T22:05:09.103Z,13.41
2022-09-28T22:08:26.477Z,13.44
2022-09-28T22:11:36.091Z,13.41
2022-09-28T22:14:44.609Z,13.41
2022-09-28T22:18:07.828Z,13.39
2022-09-28T22:21:15.612Z,13.40
2022-09-28T22:24:30.097Z,13.42
2022-09-28T22:27:32.371Z,13.42
2022-09-28T22:30:50.146Z,13.43
2022-09-28T22:33:59.557Z,13.43
2022-09-28T22:37:14.125Z,13.38
2022-09-28T22:40:15.998Z,13.40
2022-09-28T22:43:32.136Z,13.38
2022-09-28T22:46:33.925Z,13.38
2022-09-28T22:49:49.112Z,13.37
2022-09-28T22:52:50.850Z,13.40
2022-09-28T22:56:07.150Z,13.40
2022-09-28T23:03:19.132Z,13.42
2022-09-28T23:06:41.119Z,13.42
2022-09-28T23:09:56.099Z,13.38
2022-09-28T23:13:04.834Z,13.40
2022-09-28T23:16:19.183Z,13.42
2022-09-28T23:19:27.722Z,13.45
2022-09-28T23:22:36.094Z,13.47
2022-09-28T23:25:51.134Z,13.48
2022-09-28T23:28:53.675Z,13.51
2022-09-28T23:32:09.132Z,13.51
2022-09-28T23:35:24.129Z,13.38
2022-09-28T23:38:40.144Z,13.41
2022-09-28T23:41:55.134Z,13.40
2022-09-28T23:45:03.844Z,13.39
2022-09-28T23:48:12.125Z,13.37
2022-09-28T23:51:20.793Z,13.40
2022-09-28T23:54:29.136Z,13.44
2022-09-28T23:57:39.966Z,13.42
